createdAt,value
2022-12-13T00:01:57.697Z,69.78
2022-12-13T00:04:24.986Z,69.28
2022-12-13T00:06:54.247Z,63.40
2022-12-13T00:09:21.967Z,63.85
2022-12-13T00:11:48.608Z,72.07
2022-12-13T00:14:15.464Z,79.60
2022-12-13T00:16:45.739Z,77.80
2022-12-13T00:19:12.521Z,78.78
2022-12-13T00:21:38.976Z,79.63
2022-12-13T00:24:07.150Z,91.13
2022-12-13T00:26:34.133Z,94.57
2022-12-13T00:29:04.836Z,90.68
2022-12-13T00:34:20.886Z,82.22
2022-12-13T00:36:48.435Z,81.82
2022-12-13T00:39:16.563Z,70.95
2022-12-13T00:41:44.027Z,71.28
2022-12-13T00:44:12.029Z,67.30
2022-12-13T00:46:39.642Z,69.53
2022-12-13T00:49:06.192Z,67.88
2022-12-13T00:51:34.385Z,68.97
2022-12-13T00:54:01.776Z,70.75
2022-12-13T00:56:30.847Z,70.68
2022-12-13T00:58:57.561Z,62.67
2022-12-13T01:01:27.436Z,69.10
2022-12-13T01:03:55.376Z,63.22
2022-12-13T01:06:30.011Z,63.05
2022-12-13T01:08:56.768Z,66.60
2022-12-13T01:11:23.609Z,55.40
2022-12-13T01:13:50.064Z,56.08
2022-12-13T01:16:16.680Z,58.45
2022-12-13T01:18:43.281Z,54.95
2022-12-13T01:21:15.260Z,57.00
2022-12-13T01:23:42.615Z,55.30
2022-12-13T01:26:12.184Z,56.03
2022-12-13T01:28:38.877Z,55.00
2022-12-13T01:31:09.270Z,51.13
2022-12-13T01:33:35.902Z,56.83
2022-12-13T01:36:05.871Z,49.85
2022-12-13T01:38:37.698Z,51.92
2022-12-13T01:41:17.063Z,52.75
2022-12-13T01:43:44.782Z,55.63
2022-12-13T01:46:12.035Z,46.88
2022-12-13T01:48:44.515Z,46.55
2022-12-13T01:51:13.473Z,53.97
2022-12-13T01:53:41.155Z,54.20
2022-12-13T01:56:11.058Z,50.13
2022-12-13T01:58:38.504Z,48.25
2022-12-13T02:01:05.437Z,47.85
2022-12-13T02:03:33.188Z,52.63
2022-12-13T02:06:07.435Z,47.97
2022-12-13T02:08:36.118Z,43.70
2022-12-13T02:11:03.539Z,46.67
2022-12-13T02:13:29.999Z,44.13
2022-12-13T02:16:06.607Z,46.85
2022-12-13T02:18:48.721Z,43.85
2022-12-13T02:21:41.176Z,45.28
2022-12-13T02:24:30.864Z,47.42
2022-12-13T02:27:09.610Z,43.33
2022-12-13T02:29:51.153Z,43.47
2022-12-13T02:32:32.114Z,45.83
2022-12-13T02:35:17.818Z,43.30
2022-12-13T02:38:03.256Z,44.85
2022-12-13T02:40:37.781Z,50.85
2022-12-13T02:43:12.264Z,44.38
2022-12-13T02:45:44.572Z,41.42
2022-12-13T02:48:12.413Z,50.10
2022-12-13T02:50:39.458Z,46.88
2022-12-13T02:53:07.423Z,44.05
2022-12-13T02:55:35.941Z,51.10
2022-12-13T02:58:02.387Z,49.08
2022-12-13T03:00:49.011Z,47.88
2022-12-13T03:03:30.636Z,44.55
2022-12-13T03:06:24.059Z,46.30
2022-12-13T03:09:10.796Z,49.95
2022-12-13T03:12:24.007Z,47.28
2022-12-13T03:15:19.398Z,47.42
2022-12-13T03:17:50.795Z,49.85
2022-12-13T03:20:23.336Z,44.20
2022-12-13T03:22:51.319Z,47.40
2022-12-13T03:25:31.773Z,53.58
2022-12-13T03:28:01.340Z,52.80
2022-12-13T03:30:29.003Z,56.70
2022-12-13T03:32:55.438Z,53.35
2022-12-13T03:35:22.791Z,53.00
2022-12-13T03:37:49.609Z,51.03
2022-12-13T03:40:16.371Z,50.40
2022-12-13T03:42:42.867Z,55.53
2022-12-13T03:45:09.666Z,53.13
2022-12-13T03:47:36.125Z,51.47
2022-12-13T03:50:25.328Z,51.97
2022-12-13T03:52:51.357Z,50.30
2022-12-13T03:55:18.678Z,54.42
2022-12-13T03:57:45.135Z,48.90
2022-12-13T04:00:12.266Z,50.20
2022-12-13T04:02:38.820Z,52.72
2022-12-13T04:05:06.132Z,47.28
2022-12-13T04:07:34.180Z,56.80
2022-12-13T04:10:01.336Z,53.80
2022-12-13T04:12:48.603Z,58.83
2022-12-13T04:15:15.988Z,58.50
2022-12-13T04:17:42.918Z,50.63
2022-12-13T04:20:17.429Z,50.17
2022-12-13T04:22:43.866Z,55.60
2022-12-13T04:25:12.348Z,51.20
2022-12-13T04:27:39.026Z,50.70
2022-12-13T04:30:06.674Z,52.35
2022-12-13T04:32:33.172Z,50.47
2022-12-13T04:35:01.358Z,55.42
2022-12-13T04:37:28.449Z,46.47
2022-12-13T04:40:00.468Z,49.55
2022-12-13T04:42:27.540Z,50.15
2022-12-13T04:44:54.415Z,52.83
2022-12-13T04:47:20.851Z,46.90
2022-12-13T04:49:48.015Z,49.35
2022-12-13T04:52:22.074Z,48.05
2022-12-13T04:54:55.917Z,48.97
2022-12-13T04:57:22.953Z,40.38
2022-12-13T04:59:49.479Z,46.90
2022-12-13T05:02:23.466Z,50.08
2022-12-13T05:04:53.581Z,45.22
2022-12-13T05:07:21.415Z,43.88
2022-12-13T05:09:47.873Z,42.85
2022-12-13T05:12:23.057Z,37.97
2022-12-13T05:14:51.550Z,41.10
2022-12-13T05:17:18.242Z,43.15
2022-12-13T05:19:44.747Z,39.50
2022-12-13T05:22:19.755Z,36.55
2022-12-13T05:24:48.033Z,38.28
2022-12-13T05:27:24.949Z,42.22
2022-12-13T05:30:03.154Z,41.47
2022-12-13T05:32:33.892Z,38.22
2022-12-13T05:35:11.700Z,40.97
2022-12-13T05:37:38.149Z,38.35
2022-12-13T05:40:05.439Z,41.03
2022-12-13T05:42:31.856Z,40.92
2022-12-13T05:44:58.339Z,34.90
2022-12-13T05:47:24.751Z,37.33
2022-12-13T05:49:52.130Z,37.90
2022-12-13T05:52:19.716Z,36.90
2022-12-13T05:54:46.184Z,37.33
2022-12-13T05:57:13.037Z,37.78
2022-12-13T05:59:39.468Z,36.42
2022-12-13T06:02:06.015Z,36.15
2022-12-13T06:04:32.673Z,36.05
2022-12-13T06:06:59.120Z,38.25
2022-12-13T06:09:25.605Z,39.15
2022-12-13T06:11:52.607Z,37.78
2022-12-13T06:14:27.891Z,42.80
2022-12-13T06:16:54.571Z,39.03
2022-12-13T06:19:21.983Z,37.67
2022-12-13T06:21:49.618Z,36.33
2022-12-13T06:24:20.947Z,41.22
2022-12-13T06:26:48.677Z,40.53
2022-12-13T06:29:24.302Z,43.45
2022-12-13T06:32:03.313Z,37.65
2022-12-13T06:34:32.520Z,38.13
2022-12-13T06:36:58.986Z,36.30
2022-12-13T06:39:32.666Z,41.22
2022-12-13T06:42:00.646Z,34.83
2022-12-13T06:44:27.114Z,39.05
2022-12-13T06:46:53.559Z,33.78
2022-12-13T06:49:38.935Z,40.28
2022-12-13T06:52:05.674Z,36.83
2022-12-13T06:54:32.098Z,34.05
2022-12-13T06:56:58.565Z,36.67
2022-12-13T06:59:25.014Z,33.08
2022-12-13T07:01:51.542Z,36.78
2022-12-13T07:04:30.173Z,40.13
2022-12-13T07:07:01.994Z,38.42
2022-12-13T07:09:32.665Z,39.53
2022-12-13T07:11:59.378Z,39.00
2022-12-13T07:14:25.918Z,35.72
2022-12-13T07:16:53.775Z,41.67
2022-12-13T07:19:24.755Z,39.10
2022-12-13T07:21:52.072Z,41.85
2022-12-13T07:24:18.789Z,41.67
2022-12-13T07:26:45.266Z,38.72
2022-12-13T07:29:11.766Z,44.38
2022-12-13T07:31:38.297Z,42.30
2022-12-13T07:34:04.909Z,42.83
2022-12-13T07:36:31.464Z,38.35
2022-12-13T07:38:58.492Z,41.92
2022-12-13T07:41:26.157Z,36.65
2022-12-13T07:43:54.816Z,40.35
2022-12-13T07:46:25.969Z,38.10
2022-12-13T07:49:02.729Z,37.08
2022-12-13T07:51:29.280Z,41.22
2022-12-13T07:53:55.743Z,36.38
2022-12-13T07:56:22.218Z,37.05
2022-12-13T07:58:48.728Z,34.35
2022-12-13T08:01:15.206Z,36.20
2022-12-13T08:03:41.642Z,37.78
2022-12-13T08:06:12.644Z,37.08
2022-12-13T08:08:39.844Z,35.22
2022-12-13T08:11:09.047Z,35.78
2022-12-13T08:13:36.278Z,36.88
2022-12-13T08:16:28.192Z,43.65
2022-12-13T08:19:01.738Z,47.35
2022-12-13T08:21:54.579Z,49.42
2022-12-13T08:24:23.919Z,54.70
2022-12-13T08:26:50.496Z,50.83
2022-12-13T08:29:23.207Z,43.95
2022-12-13T08:32:01.655Z,44.63
2022-12-13T08:34:28.302Z,39.83
2022-12-13T08:37:02.143Z,39.72
2022-12-13T08:39:30.609Z,42.70
2022-12-13T08:42:17.123Z,46.17
2022-12-13T08:44:53.019Z,51.65
2022-12-13T08:47:22.861Z,67.32
2022-12-13T08:50:01.481Z,68.40
2022-12-13T08:52:30.387Z,64.88
2022-12-13T08:54:56.811Z,56.08
2022-12-13T08:57:23.321Z,56.92
2022-12-13T08:59:49.908Z,51.88
2022-12-13T09:02:16.616Z,49.25
2022-12-13T09:04:43.635Z,48.47
2022-12-13T09:07:10.185Z,43.28
2022-12-13T09:09:37.429Z,46.72
2022-12-13T09:12:11.038Z,44.50
2022-12-13T09:14:51.767Z,46.95
2022-12-13T09:17:24.412Z,40.30
2022-12-13T09:19:57.827Z,40.78
2022-12-13T09:22:33.186Z,43.67
2022-12-13T09:25:02.535Z,38.70
2022-12-13T09:27:30.615Z,43.33
2022-12-13T09:29:57.466Z,48.60
2022-12-13T09:32:25.252Z,45.87
2022-12-13T09:34:51.765Z,47.53
2022-12-13T09:37:23.135Z,45.73
2022-12-13T09:39:54.846Z,44.37
2022-12-13T09:42:30.192Z,47.10
2022-12-13T09:45:04.517Z,44.73
2022-12-13T09:47:35.219Z,45.33
2022-12-13T09:50:15.126Z,54.03
2022-12-13T09:52:43.237Z,59.28
2022-12-13T09:55:24.989Z,49.77
2022-12-13T09:57:52.289Z,50.87
2022-12-13T10:00:21.804Z,47.77
2022-12-13T10:02:58.344Z,44.30
2022-12-13T10:05:42.076Z,46.70
2022-12-13T10:08:18.197Z,46.27
2022-12-13T10:10:45.121Z,46.75
2022-12-13T10:13:25.681Z,45.42
2022-12-13T10:15:57.792Z,45.77
2022-12-13T10:18:44.028Z,45.10
2022-12-13T10:21:29.552Z,47.53
2022-12-13T10:24:25.242Z,44.60
2022-12-13T10:26:52.140Z,44.33
2022-12-13T10:29:18.756Z,44.97
2022-12-13T10:31:47.660Z,48.17
2022-12-13T10:34:17.094Z,48.43
2022-12-13T10:36:43.764Z,47.57
2022-12-13T10:39:34.917Z,47.67
2022-12-13T10:42:12.616Z,47.15
2022-12-13T10:44:39.078Z,48.30
2022-12-13T10:47:22.462Z,51.50
2022-12-13T10:49:59.013Z,44.27
2022-12-13T10:52:43.526Z,47.07
2022-12-13T10:55:30.921Z,48.97
2022-12-13T10:58:00.869Z,44.93
2022-12-13T11:00:32.304Z,43.07
2022-12-13T11:02:58.987Z,40.93
2022-12-13T11:05:34.039Z,42.37
2022-12-13T11:08:15.542Z,46.60
2022-12-13T11:10:42.963Z,41.70
2022-12-13T11:13:25.636Z,39.67
2022-12-13T11:15:55.809Z,40.13
2022-12-13T11:18:24.622Z,36.17
2022-12-13T11:20:57.471Z,34.13
2022-12-13T11:23:34.616Z,37.77
2022-12-13T11:26:07.052Z,35.80
2022-12-13T11:28:51.747Z,39.10
2022-12-13T11:31:21.253Z,34.50
2022-12-13T11:34:21.747Z,37.47
2022-12-13T11:36:58.864Z,35.67
2022-12-13T11:39:33.399Z,37.57
2022-12-13T11:42:05.542Z,39.80
2022-12-13T11:44:47.711Z,36.20
2022-12-13T11:47:20.883Z,40.03
2022-12-13T11:49:48.033Z,36.13
2022-12-13T11:52:20.204Z,38.20
2022-12-13T11:54:59.961Z,34.00
2022-12-13T11:57:51.100Z,36.03
2022-12-13T12:00:33.587Z,32.90
2022-12-13T12:03:17.079Z,34.77
2022-12-13T12:05:55.985Z,29.90
2022-12-13T12:08:54.069Z,32.10
2022-12-13T12:11:28.033Z,35.07
2022-12-13T12:13:59.230Z,35.83
2022-12-13T12:16:31.152Z,33.30
2022-12-13T12:19:01.401Z,34.60
2022-12-13T12:22:13.178Z,31.73
2022-12-13T12:25:02.048Z,31.57
2022-12-13T12:27:50.054Z,32.77
2022-12-13T12:30:55.651Z,29.17
2022-12-13T12:33:39.449Z,33.83
2022-12-13T12:36:22.155Z,32.87
2022-12-13T12:38:57.918Z,35.30
2022-12-13T12:41:45.968Z,29.90
2022-12-13T12:44:19.883Z,32.77
2022-12-13T12:47:31.632Z,37.50
2022-12-13T12:50:10.986Z,34.50
2022-12-13T12:53:25.487Z,33.90
2022-12-13T12:56:17.399Z,37.17
2022-12-13T12:58:51.781Z,31.97
2022-12-13T13:01:25.705Z,39.23
2022-12-13T13:03:54.072Z,34.20
2022-12-13T13:06:40.034Z,32.43
2022-12-13T13:09:08.772Z,30.87
2022-12-13T13:11:42.812Z,31.87
2022-12-13T13:14:31.546Z,29.87
2022-12-13T13:17:23.639Z,32.47
2022-12-13T13:20:00.040Z,41.03
2022-12-13T13:22:43.527Z,34.50
2022-12-13T13:25:31.186Z,32.20
2022-12-13T13:28:06.500Z,32.20
2022-12-13T13:30:33.341Z,33.27
2022-12-13T13:32:59.873Z,31.43
2022-12-13T13:35:36.146Z,31.07
2022-12-13T13:38:06.992Z,34.10
2022-12-13T13:40:38.350Z,34.30
2022-12-13T13:43:16.508Z,32.07
2022-12-13T13:45:57.220Z,33.93
2022-12-13T13:48:51.834Z,37.93
2022-12-13T13:55:10.770Z,36.97
2022-12-13T13:58:08.752Z,40.37
2022-12-13T14:00:58.244Z,38.60
2022-12-13T14:04:02.869Z,35.93
2022-12-13T14:06:53.293Z,40.60
2022-12-13T14:09:46.206Z,43.43
2022-12-13T14:12:15.693Z,43.07
2022-12-13T14:15:01.186Z,47.13
2022-12-13T14:17:52.783Z,40.37
2022-12-13T14:20:39.111Z,39.47
2022-12-13T14:23:42.884Z,43.53
2022-12-13T14:26:43.886Z,51.03
2022-12-13T14:29:17.293Z,40.63
2022-12-13T14:31:47.143Z,39.73
2022-12-13T14:34:43.621Z,35.73
2022-12-13T14:37:31.119Z,40.97
2022-12-13T14:39:58.844Z,40.00
2022-12-13T14:42:33.731Z,38.93
2022-12-13T14:45:18.786Z,40.47
2022-12-13T14:47:45.435Z,39.40
2022-12-13T14:50:18.422Z,39.83
2022-12-13T14:52:55.279Z,37.60
2022-12-13T14:55:36.359Z,43.90
2022-12-13T14:58:19.359Z,42.70
2022-12-13T15:00:46.102Z,40.20
2022-12-13T15:03:22.427Z,40.57
2022-12-13T15:06:00.536Z,41.60
2022-12-13T15:08:27.449Z,39.50
2022-12-13T15:11:03.079Z,44.10
2022-12-13T15:13:44.419Z,43.80
2022-12-13T15:16:25.718Z,43.43
2022-12-13T15:19:32.026Z,42.97
2022-12-13T15:22:05.924Z,40.50
2022-12-13T15:24:38.183Z,42.03
2022-12-13T15:27:04.970Z,41.03
2022-12-13T15:29:33.265Z,41.00
2022-12-13T15:32:01.168Z,45.17
2022-12-13T15:34:28.563Z,47.40
2022-12-13T15:37:04.105Z,56.17
2022-12-13T15:39:31.296Z,66.00
2022-12-13T15:41:58.264Z,50.17
2022-12-13T15:44:39.558Z,62.73
2022-12-13T15:47:28.828Z,54.77
2022-12-13T15:50:03.693Z,44.80
2022-12-13T15:52:39.204Z,43.63
2022-12-13T15:55:05.684Z,43.27
2022-12-13T15:57:34.463Z,47.03
2022-12-13T16:00:15.255Z,43.83
2022-12-13T16:03:13.615Z,45.50
2022-12-13T16:05:51.615Z,44.37
2022-12-13T16:08:33.150Z,42.03
2022-12-13T16:11:00.319Z,42.07
2022-12-13T16:13:39.145Z,48.10
2022-12-13T16:16:27.059Z,44.87
2022-12-13T16:18:59.207Z,43.30
2022-12-13T16:21:26.882Z,46.10
2022-12-13T16:23:53.843Z,45.70
2022-12-13T16:26:28.795Z,46.20
2022-12-13T16:28:58.727Z,47.97
2022-12-13T16:31:35.853Z,51.17
2022-12-13T16:34:03.975Z,48.27
2022-12-13T16:36:30.566Z,48.33
2022-12-13T16:38:58.110Z,50.57
2022-12-13T16:41:25.139Z,47.87
2022-12-13T16:44:00.587Z,47.40
2022-12-13T16:47:14.280Z,43.67
2022-12-13T16:49:28.577Z,45.90
2022-12-13T16:51:55.946Z,45.37
2022-12-13T16:54:23.687Z,49.67
2022-12-13T16:56:51.308Z,51.47
2022-12-13T16:59:19.892Z,55.77
2022-12-13T17:01:47.505Z,53.47
2022-12-13T17:04:20.535Z,65.23
2022-12-13T17:06:54.492Z,63.60
2022-12-13T17:09:22.659Z,50.03
2022-12-13T17:11:49.202Z,48.13
2022-12-13T17:14:21.981Z,51.30
2022-12-13T17:16:48.556Z,52.90
2022-12-13T17:19:15.786Z,48.67
2022-12-13T17:21:42.436Z,51.33
2022-12-13T17:24:08.931Z,46.57
2022-12-13T17:26:35.676Z,47.33
2022-12-13T17:29:02.203Z,54.23
2022-12-13T17:31:36.103Z,50.93
2022-12-13T17:34:04.114Z,51.90
2022-12-13T17:36:31.587Z,54.50
2022-12-13T17:38:58.441Z,53.70
2022-12-13T17:41:25.935Z,52.33
2022-12-13T17:43:52.611Z,50.97
2022-12-13T17:46:19.482Z,52.03
2022-12-13T17:48:47.371Z,52.42
2022-12-13T17:51:18.275Z,61.83
2022-12-13T17:53:44.834Z,57.40
2022-12-13T17:56:15.860Z,59.13
2022-12-13T17:58:42.739Z,61.78
2022-12-13T18:01:20.430Z,62.95
2022-12-13T18:03:48.880Z,53.47
2022-12-13T18:06:18.840Z,59.90
2022-12-13T18:08:46.678Z,57.53
2022-12-13T18:11:33.627Z,59.38
2022-12-13T18:14:01.879Z,54.92
2022-12-13T18:16:36.971Z,59.63
2022-12-13T18:19:09.082Z,54.35
2022-12-13T18:21:36.915Z,62.20
2022-12-13T18:24:04.208Z,60.05
2022-12-13T18:26:31.770Z,58.35
2022-12-13T18:28:58.414Z,65.85
2022-12-13T18:31:25.299Z,56.25
2022-12-13T18:33:53.310Z,62.85
2022-12-13T18:36:21.120Z,61.42
2022-12-13T18:38:48.147Z,60.72
2022-12-13T18:41:21.100Z,58.22
2022-12-13T18:43:47.922Z,60.65
2022-12-13T18:46:15.828Z,63.00
2022-12-13T18:48:43.789Z,68.47
2022-12-13T18:51:10.831Z,66.75
2022-12-13T18:53:38.326Z,71.78
2022-12-13T18:56:09.579Z,68.00
2022-12-13T18:58:47.359Z,69.63
2022-12-13T19:01:15.736Z,71.40
2022-12-13T19:03:46.991Z,65.50
2022-12-13T19:06:19.101Z,74.95
2022-12-13T19:08:51.457Z,72.25
2022-12-13T19:11:18.860Z,68.68
2022-12-13T19:13:45.534Z,71.40
2022-12-13T19:16:14.639Z,68.70
2022-12-13T19:18:42.561Z,72.10
2022-12-13T19:21:12.521Z,71.10
2022-12-13T19:23:40.794Z,79.63
2022-12-13T19:26:13.320Z,79.13
2022-12-13T19:28:41.577Z,75.22
2022-12-13T19:31:10.089Z,85.13
2022-12-13T19:33:36.683Z,82.63
2022-12-13T19:36:03.875Z,84.07
2022-12-13T19:38:30.641Z,83.82
2022-12-13T19:40:59.374Z,86.57
2022-12-13T19:43:27.484Z,78.03
2022-12-13T19:45:56.359Z,79.43
2022-12-13T19:48:23.009Z,75.53
2022-12-13T19:51:05.370Z,81.00
2022-12-13T19:53:32.811Z,77.05
2022-12-13T19:56:01.400Z,71.65
2022-12-13T19:58:28.193Z,72.00
2022-12-13T20:01:01.344Z,73.13
2022-12-13T20:03:28.345Z,72.82
2022-12-13T20:05:58.905Z,69.97
2022-12-13T20:08:25.629Z,70.68
2022-12-13T20:11:13.225Z,74.25
2022-12-13T20:13:39.898Z,76.53
2022-12-13T20:16:06.992Z,76.63
2022-12-13T20:18:34.274Z,77.20
2022-12-13T20:21:11.497Z,78.25
2022-12-13T20:23:38.968Z,76.32
2022-12-13T20:26:08.568Z,77.72
2022-12-13T20:28:35.147Z,75.22
2022-12-13T20:31:08.934Z,78.43
2022-12-13T20:33:35.780Z,77.38
2022-12-13T20:36:26.163Z,76.30
2022-12-13T20:38:55.988Z,70.10
2022-12-13T20:41:23.678Z,71.90
2022-12-13T20:43:55.004Z,68.05
2022-12-13T20:46:22.844Z,71.47
2022-12-13T20:48:50.335Z,70.85
2022-12-13T20:51:19.519Z,71.25
2022-12-13T20:53:48.268Z,70.72
2022-12-13T20:56:17.545Z,70.95
2022-12-13T20:58:44.379Z,75.50
2022-12-13T21:01:25.327Z,72.43
2022-12-13T21:03:57.127Z,73.03
2022-12-13T21:06:24.117Z,76.78
2022-12-13T21:09:00.054Z,68.25
2022-12-13T21:11:38.592Z,72.60
2022-12-13T21:14:25.261Z,68.43
2022-12-13T21:17:00.029Z,71.50
2022-12-13T21:19:38.895Z,67.40
2022-12-13T21:22:06.393Z,69.15
2022-12-13T21:24:32.864Z,60.17
2022-12-13T21:26:59.925Z,74.03
2022-12-13T21:29:26.384Z,70.05
2022-12-13T21:31:54.690Z,63.25
2022-12-13T21:34:22.414Z,64.32
2022-12-13T21:36:52.097Z,64.68
2022-12-13T21:39:20.189Z,68.60
2022-12-13T21:41:46.786Z,68.82
2022-12-13T21:44:16.366Z,63.70
2022-12-13T21:49:30.101Z,57.40
2022-12-13T21:51:56.546Z,58.72
2022-12-13T21:54:23.074Z,61.47
2022-12-13T21:57:08.077Z,64.85
2022-12-13T21:59:34.590Z,60.97
2022-12-13T22:02:18.531Z,59.35
2022-12-13T22:04:47.460Z,60.95
2022-12-13T22:07:17.032Z,54.33
2022-12-13T22:09:44.224Z,58.90
2022-12-13T22:12:29.318Z,57.40
2022-12-13T22:14:56.271Z,55.47
2022-12-13T22:17:29.706Z,57.55
2022-12-13T22:19:59.753Z,55.20
2022-12-13T22:22:26.539Z,51.55
2022-12-13T22:24:53.985Z,49.92
2022-12-13T22:27:24.197Z,54.58
2022-12-13T22:29:56.891Z,49.20
2022-12-13T22:32:25.590Z,52.88
2022-12-13T22:34:52.124Z,50.75
2022-12-13T22:37:18.589Z,50.75
2022-12-13T22:39:45.503Z,48.50
2022-12-13T22:42:12.322Z,52.70
2022-12-13T22:44:39.016Z,52.92
2022-12-13T22:47:06.693Z,57.83
2022-12-13T22:49:33.327Z,52.28
2022-12-13T22:51:59.988Z,53.75
2022-12-13T22:54:26.471Z,48.88
2022-12-13T22:56:53.618Z,50.47
2022-12-13T22:59:20.102Z,52.88
2022-12-13T23:01:47.153Z,45.92
2022-12-13T23:04:14.014Z,47.42
2022-12-13T23:06:41.379Z,46.78
2022-12-13T23:09:11.076Z,49.47
2022-12-13T23:11:56.189Z,45.10
2022-12-13T23:14:28.329Z,46.95
2022-12-13T23:16:55.137Z,43.47
2022-12-13T23:22:08.709Z,45.22
2022-12-13T23:24:35.521Z,45.83
2022-12-13T23:27:02.025Z,40.40
2022-12-13T23:29:28.462Z,43.45
2022-12-13T23:31:54.937Z,42.95
2022-12-13T23:34:21.910Z,42.65
2022-12-13T23:36:48.386Z,43.50
2022-12-13T23:39:14.839Z,40.83
2022-12-13T23:41:41.278Z,38.83
2022-12-13T23:44:07.783Z,39.20
2022-12-13T23:46:35.737Z,41.08
2022-12-13T23:49:05.335Z,42.05
2022-12-13T23:51:32.584Z,35.95
2022-12-13T23:53:59.166Z,42.42
2022-12-13T23:56:25.819Z,43.05
2022-12-13T23:58:52.324Z,38.97
